sensor_id;sensor_type;location;lat;lon;timestamp;P1;durP1;ratioP1;P2;durP2;ratioP2
83151;SDS011;73381;58.502;8.624;2024-01-15T00:01:59;0.28;;;0.10;;
83151;SDS011;73381;58.502;8.624;2024-01-15T00:05:01;0.25;;;0.10;;
83151;SDS011;73381;58.502;8.624;2024-01-15T00:08:03;0.10;;;0.10;;
83151;SDS011;73381;58.502;8.624;2024-01-15T00:11:06;0.13;;;0.13;;
83151;SDS011;73381;58.502;8.624;2024-01-15T00:14:08;0.00;;;0.00;;
83151;SDS011;73381;58.502;8.624;2024-01-15T00:17:10;0.00;;;0.00;;
83151;SDS011;73381;58.502;8.624;2024-01-15T00:20:12;0.47;;;0.17;;
83151;SDS011;73381;58.502;8.624;2024-01-15T00:23:14;0.52;;;0.10;;
83151;SDS011;73381;58.502;8.624;2024-01-15T00:26:17;0.00;;;0.00;;
83151;SDS011;73381;58.502;8.624;2024-01-15T00:29:19;0.00;;;0.00;;
83151;SDS011;73381;58.502;8.624;2024-01-15T00:32:20;0.00;;;0.00;;
83151;SDS011;73381;58.502;8.624;2024-01-15T00:35:22;0.10;;;0.03;;
83151;SDS011;73381;58.502;8.624;2024-01-15T00:38:24;0.10;;;0.00;;
83151;SDS011;73381;58.502;8.624;2024-01-15T00:41:27;0.00;;;0.00;;
83151;SDS011;73381;58.502;8.624;2024-01-15T00:44:29;0.17;;;0.10;;
83151;SDS011;73381;58.502;8.624;2024-01-15T00:47:31;0.00;;;0.00;;
83151;SDS011;73381;58.502;8.624;2024-01-15T00:50:33;0.00;;;0.00;;
83151;SDS011;73381;58.502;8.624;2024-01-15T00:53:35;0.00;;;0.00;;
83151;SDS011;73381;58.502;8.624;2024-01-15T00:56:38;0.17;;;0.00;;
83151;SDS011;73381;58.502;8.624;2024-01-15T00:59:40;0.00;;;0.00;;
83151;SDS011;73381;58.502;8.624;2024-01-15T01:02:42;0.30;;;0.10;;
83151;SDS011;73381;58.502;8.624;2024-01-15T01:05:43;0.10;;;0.00;;
83151;SDS011;73381;58.502;8.624;2024-01-15T01:08:45;0.00;;;0.00;;
83151;SDS011;73381;58.502;8.624;2024-01-15T01:11:49;0.20;;;0.03;;
83151;SDS011;73381;58.502;8.624;2024-01-15T01:14:50;0.00;;;0.00;;
83151;SDS011;73381;58.502;8.624;2024-01-15T01:17:52;0.00;;;0.00;;
83151;SDS011;73381;58.502;8.624;2024-01-15T01:20:54;0.00;;;0.00;;
83151;SDS011;73381;58.502;8.624;2024-01-15T01:23:56;0.10;;;0.10;;
83151;SDS011;73381;58.502;8.624;2024-01-15T01:26:59;0.05;;;0.05;;
83151;SDS011;73381;58.502;8.624;2024-01-15T01:30:01;0.00;;;0.00;;
83151;SDS011;73381;58.502;8.624;2024-01-15T01:33:03;0.52;;;0.25;;
83151;SDS011;73381;58.502;8.624;2024-01-15T01:36:07;0.38;;;0.15;;
83151;SDS011;73381;58.502;8.624;2024-01-15T01:39:09;0.43;;;0.10;;
83151;SDS011;73381;58.502;8.624;2024-01-15T01:42:12;0.00;;;0.00;;
83151;SDS011;73381;58.502;8.624;2024-01-15T01:45:14;0.00;;;0.00;;
83151;SDS011;73381;58.502;8.624;2024-01-15T01:48:16;0.05;;;0.05;;
83151;SDS011;73381;58.502;8.624;2024-01-15T01:51:18;3.00;;;0.20;;
83151;SDS011;73381;58.502;8.624;2024-01-15T01:54:21;0.20;;;0.00;;
83151;SDS011;73381;58.502;8.624;2024-01-15T01:57:24;0.00;;;0.00;;
83151;SDS011;73381;58.502;8.624;2024-01-15T02:00:26;0.00;;;0.00;;
83151;SDS011;73381;58.502;8.624;2024-01-15T02:03:29;0.00;;;0.00;;
83151;SDS011;73381;58.502;8.624;2024-01-15T02:06:32;0.00;;;0.00;;
83151;SDS011;73381;58.502;8.624;2024-01-15T02:09:35;0.00;;;0.00;;
83151;SDS011;73381;58.502;8.624;2024-01-15T02:12:38;0.10;;;0.00;;
83151;SDS011;73381;58.502;8.624;2024-01-15T02:15:40;0.00;;;0.00;;
83151;SDS011;73381;58.502;8.624;2024-01-15T02:18:43;0.25;;;0.10;;
83151;SDS011;73381;58.502;8.624;2024-01-15T02:21:46;0.00;;;0.00;;
83151;SDS011;73381;58.502;8.624;2024-01-15T02:24:49;0.00;;;0.00;;
83151;SDS011;73381;58.502;8.624;2024-01-15T02:27:51;0.28;;;0.17;;
83151;SDS011;73381;58.502;8.624;2024-01-15T02:30:53;0.00;;;0.00;;
83151;SDS011;73381;58.502;8.624;2024-01-15T02:33:55;0.00;;;0.00;;
83151;SDS011;73381;58.502;8.624;2024-01-15T02:36:57;0.25;;;0.20;;
83151;SDS011;73381;58.502;8.624;2024-01-15T02:40:01;0.00;;;0.00;;
83151;SDS011;73381;58.502;8.624;2024-01-15T02:43:02;0.00;;;0.00;;
83151;SDS011;73381;58.502;8.624;2024-01-15T02:46:04;0.05;;;0.00;;
83151;SDS011;73381;58.502;8.624;2024-01-15T02:49:06;0.25;;;0.10;;
83151;SDS011;73381;58.502;8.624;2024-01-15T02:52:08;0.00;;;0.00;;
83151;SDS011;73381;58.502;8.624;2024-01-15T02:55:11;0.00;;;0.00;;
83151;SDS011;73381;58.502;8.624;2024-01-15T02:58:20;1.05;;;0.35;;
83151;SDS011;73381;58.502;8.624;2024-01-15T03:01:22;0.00;;;0.00;;
83151;SDS011;73381;58.502;8.624;2024-01-15T03:04:24;0.00;;;0.00;;
83151;SDS011;73381;58.502;8.624;2024-01-15T03:07:27;0.10;;;0.10;;
83151;SDS011;73381;58.502;8.624;2024-01-15T03:10:31;0.03;;;0.03;;
83151;SDS011;73381;58.502;8.624;2024-01-15T03:13:35;0.00;;;0.00;;
83151;SDS011;73381;58.502;8.624;2024-01-15T03:16:37;0.70;;;0.10;;
83151;SDS011;73381;58.502;8.624;2024-01-15T03:19:39;0.00;;;0.00;;
83151;SDS011;73381;58.502;8.624;2024-01-15T03:22:41;0.22;;;0.10;;
83151;SDS011;73381;58.502;8.624;2024-01-15T03:25:44;0.00;;;0.00;;
83151;SDS011;73381;58.502;8.624;2024-01-15T03:28:46;0.30;;;0.10;;
83151;SDS011;73381;58.502;8.624;2024-01-15T03:31:47;0.55;;;0.17;;
83151;SDS011;73381;58.502;8.624;2024-01-15T03:34:49;0.65;;;0.20;;
83151;SDS011;73381;58.502;8.624;2024-01-15T03:37:51;0.65;;;0.15;;
83151;SDS011;73381;58.502;8.624;2024-01-15T03:40:55;0.28;;;0.08;;
83151;SDS011;73381;58.502;8.624;2024-01-15T03:43:56;0.35;;;0.00;;
83151;SDS011;73381;58.502;8.624;2024-01-15T03:46:58;0.43;;;0.10;;
83151;SDS011;73381;58.502;8.624;2024-01-15T03:50:00;0.00;;;0.00;;
83151;SDS011;73381;58.502;8.624;2024-01-15T03:53:02;0.52;;;0.00;;
83151;SDS011;73381;58.502;8.624;2024-01-15T03:56:05;0.30;;;0.10;;
83151;SDS011;73381;58.502;8.624;2024-01-15T03:59:08;0.47;;;0.35;;
83151;SDS011;73381;58.502;8.624;2024-01-15T04:02:09;0.10;;;0.00;;
83151;SDS011;73381;58.502;8.624;2024-01-15T04:05:11;0.10;;;0.00;;
83151;SDS011;73381;58.502;8.624;2024-01-15T04:08:13;0.10;;;0.10;;
83151;SDS011;73381;58.502;8.624;2024-01-15T04:11:16;0.47;;;0.10;;
83151;SDS011;73381;58.502;8.624;2024-01-15T04:14:18;0.00;;;0.00;;
83151;SDS011;73381;58.502;8.624;2024-01-15T04:17:20;0.32;;;0.10;;
83151;SDS011;73381;58.502;8.624;2024-01-15T04:20:22;0.00;;;0.00;;
83151;SDS011;73381;58.502;8.624;2024-01-15T04:23:25;0.10;;;0.00;;
83151;SDS011;73381;58.502;8.624;2024-01-15T04:26:29;0.00;;;0.00;;
83151;SDS011;73381;58.502;8.624;2024-01-15T04:29:30;0.17;;;0.10;;
83151;SDS011;73381;58.502;8.624;2024-01-15T04:32:32;0.10;;;0.00;;
83151;SDS011;73381;58.502;8.624;2024-01-15T04:35:34;0.00;;;0.00;;
83151;SDS011;73381;58.502;8.624;2024-01-15T04:38:36;0.10;;;0.10;;
83151;SDS011;73381;58.502;8.624;2024-01-15T04:41:39;0.38;;;0.15;;
83151;SDS011;73381;58.502;8.624;2024-01-15T04:44:40;0.20;;;0.10;;
83151;SDS011;73381;58.502;8.624;2024-01-15T04:47:42;0.10;;;0.00;;
83151;SDS011;73381;58.502;8.624;2024-01-15T04:50:44;0.05;;;0.00;;
83151;SDS011;73381;58.502;8.624;2024-01-15T04:53:46;0.00;;;0.00;;
83151;SDS011;73381;58.502;8.624;2024-01-15T04:56:49;0.10;;;0.00;;
83151;SDS011;73381;58.502;8.624;2024-01-15T04:59:50;0.15;;;0.05;;
83151;SDS011;73381;58.502;8.624;2024-01-15T05:02:52;0.43;;;0.10;;
83151;SDS011;73381;58.502;8.624;2024-01-15T05:05:54;2.05;;;0.30;;
83151;SDS011;73381;58.502;8.624;2024-01-15T05:08:56;2.42;;;0.65;;
83151;SDS011;73381;58.502;8.624;2024-01-15T05:11:59;0.98;;;0.43;;
83151;SDS011;73381;58.502;8.624;2024-01-15T05:15:01;1.30;;;0.30;;
83151;SDS011;73381;58.502;8.624;2024-01-15T05:18:03;0.85;;;0.35;;
83151;SDS011;73381;58.502;8.624;2024-01-15T05:21:05;1.00;;;0.30;;
83151;SDS011;73381;58.502;8.624;2024-01-15T05:24:07;0.55;;;0.20;;
83151;SDS011;73381;58.502;8.624;2024-01-15T05:27:11;0.65;;;0.10;;
83151;SDS011;73381;58.502;8.624;2024-01-15T05:30:13;1.00;;;0.10;;
83151;SDS011;73381;58.502;8.624;2024-01-15T05:33:15;0.10;;;0.00;;
83151;SDS011;73381;58.502;8.624;2024-01-15T05:36:17;0.00;;;0.00;;
83151;SDS011;73381;58.502;8.624;2024-01-15T05:39:19;0.32;;;0.17;;
83151;SDS011;73381;58.502;8.624;2024-01-15T05:42:25;0.28;;;0.10;;
83151;SDS011;73381;58.502;8.624;2024-01-15T05:45:27;0.63;;;0.20;;
83151;SDS011;73381;58.502;8.624;2024-01-15T05:48:29;0.47;;;0.10;;
83151;SDS011;73381;58.502;8.624;2024-01-15T05:51:31;0.10;;;0.10;;
83151;SDS011;73381;58.502;8.624;2024-01-15T05:54:33;1.00;;;0.40;;
83151;SDS011;73381;58.502;8.624;2024-01-15T05:57:36;0.50;;;0.17;;
83151;SDS011;73381;58.502;8.624;2024-01-15T06:00:38;2.25;;;0.93;;
83151;SDS011;73381;58.502;8.624;2024-01-15T06:03:40;0.73;;;0.25;;
83151;SDS011;73381;58.502;8.624;2024-01-15T06:06:42;2.13;;;0.70;;
83151;SDS011;73381;58.502;8.624;2024-01-15T06:09:43;3.10;;;0.88;;
83151;SDS011;73381;58.502;8.624;2024-01-15T06:12:47;1.80;;;0.63;;
83151;SDS011;73381;58.502;8.624;2024-01-15T06:15:48;1.58;;;0.57;;
83151;SDS011;73381;58.502;8.624;2024-01-15T06:18:50;3.13;;;0.82;;
83151;SDS011;73381;58.502;8.624;2024-01-15T06:21:52;1.77;;;0.45;;
83151;SDS011;73381;58.502;8.624;2024-01-15T06:24:54;0.32;;;0.20;;
83151;SDS011;73381;58.502;8.624;2024-01-15T06:27:57;0.70;;;0.20;;
83151;SDS011;73381;58.502;8.624;2024-01-15T06:30:59;0.93;;;0.50;;
83151;SDS011;73381;58.502;8.624;2024-01-15T06:34:01;1.75;;;0.80;;
83151;SDS011;73381;58.502;8.624;2024-01-15T06:37:03;2.08;;;0.70;;
83151;SDS011;73381;58.502;8.624;2024-01-15T06:40:05;2.72;;;0.90;;
83151;SDS011;73381;58.502;8.624;2024-01-15T06:43:09;3.22;;;0.98;;
83151;SDS011;73381;58.502;8.624;2024-01-15T06:46:11;3.72;;;1.13;;
83151;SDS011;73381;58.502;8.624;2024-01-15T06:49:13;5.50;;;1.30;;
83151;SDS011;73381;58.502;8.624;2024-01-15T06:52:15;2.33;;;0.57;;
83151;SDS011;73381;58.502;8.624;2024-01-15T06:55:17;3.05;;;1.08;;
83151;SDS011;73381;58.502;8.624;2024-01-15T06:58:20;5.38;;;1.20;;
83151;SDS011;73381;58.502;8.624;2024-01-15T07:01:22;8.27;;;1.30;;
83151;SDS011;73381;58.502;8.624;2024-01-15T07:04:24;4.15;;;1.38;;
83151;SDS011;73381;58.502;8.624;2024-01-15T07:07:26;4.95;;;1.10;;
83151;SDS011;73381;58.502;8.624;2024-01-15T07:10:27;1.40;;;0.47;;
83151;SDS011;73381;58.502;8.624;2024-01-15T07:13:31;3.90;;;1.10;;
83151;SDS011;73381;58.502;8.624;2024-01-15T07:16:32;2.50;;;1.17;;
83151;SDS011;73381;58.502;8.624;2024-01-15T07:19:38;1.75;;;0.50;;
83151;SDS011;73381;58.502;8.624;2024-01-15T07:22:40;1.95;;;0.70;;
83151;SDS011;73381;58.502;8.624;2024-01-15T07:25:42;1.02;;;0.50;;
83151;SDS011;73381;58.502;8.624;2024-01-15T07:28:46;2.15;;;0.60;;
83151;SDS011;73381;58.502;8.624;2024-01-15T07:31:48;1.30;;;0.57;;
83151;SDS011;73381;58.502;8.624;2024-01-15T07:34:51;4.80;;;1.88;;
83151;SDS011;73381;58.502;8.624;2024-01-15T07:37:53;0.80;;;0.40;;
83151;SDS011;73381;58.502;8.624;2024-01-15T07:40:55;2.45;;;0.90;;
83151;SDS011;73381;58.502;8.624;2024-01-15T07:43:58;1.00;;;0.40;;
83151;SDS011;73381;58.502;8.624;2024-01-15T07:46:59;8.00;;;2.17;;
83151;SDS011;73381;58.502;8.624;2024-01-15T07:50:01;3.80;;;0.95;;
83151;SDS011;73381;58.502;8.624;2024-01-15T07:53:06;6.18;;;1.77;;
83151;SDS011;73381;58.502;8.624;2024-01-15T07:56:08;7.07;;;1.20;;
83151;SDS011;73381;58.502;8.624;2024-01-15T07:59:11;4.05;;;1.00;;
83151;SDS011;73381;58.502;8.624;2024-01-15T08:02:13;1.25;;;0.45;;
83151;SDS011;73381;58.502;8.624;2024-01-15T08:05:15;0.85;;;0.30;;
83151;SDS011;73381;58.502;8.624;2024-01-15T08:08:16;0.43;;;0.15;;
83151;SDS011;73381;58.502;8.624;2024-01-15T08:11:18;0.85;;;0.25;;
83151;SDS011;73381;58.502;8.624;2024-01-15T08:14:21;1.88;;;0.55;;
83151;SDS011;73381;58.502;8.624;2024-01-15T08:17:23;0.98;;;0.40;;
83151;SDS011;73381;58.502;8.624;2024-01-15T08:20:25;1.33;;;0.50;;
83151;SDS011;73381;58.502;8.624;2024-01-15T08:23:27;2.65;;;0.65;;
83151;SDS011;73381;58.502;8.624;2024-01-15T08:26:29;2.60;;;1.00;;
83151;SDS011;73381;58.502;8.624;2024-01-15T08:29:33;1.92;;;0.73;;
83151;SDS011;73381;58.502;8.624;2024-01-15T08:32:34;3.10;;;1.23;;
83151;SDS011;73381;58.502;8.624;2024-01-15T08:35:36;3.30;;;1.25;;
83151;SDS011;73381;58.502;8.624;2024-01-15T08:38:38;2.03;;;1.10;;
83151;SDS011;73381;58.502;8.624;2024-01-15T08:41:40;3.75;;;1.20;;
83151;SDS011;73381;58.502;8.624;2024-01-15T08:44:43;3.08;;;1.15;;
83151;SDS011;73381;58.502;8.624;2024-01-15T08:47:45;3.05;;;0.82;;
83151;SDS011;73381;58.502;8.624;2024-01-15T08:50:47;2.85;;;1.00;;
83151;SDS011;73381;58.502;8.624;2024-01-15T08:53:51;3.70;;;1.00;;
83151;SDS011;73381;58.502;8.624;2024-01-15T08:56:53;5.70;;;1.38;;
83151;SDS011;73381;58.502;8.624;2024-01-15T08:59:56;2.75;;;0.93;;
83151;SDS011;73381;58.502;8.624;2024-01-15T09:02:58;3.53;;;1.25;;
83151;SDS011;73381;58.502;8.624;2024-01-15T09:05:59;3.78;;;1.45;;
83151;SDS011;73381;58.502;8.624;2024-01-15T09:09:01;5.32;;;1.58;;
83151;SDS011;73381;58.502;8.624;2024-01-15T09:12:03;4.93;;;1.77;;
83151;SDS011;73381;58.502;8.624;2024-01-15T09:15:07;7.28;;;1.77;;
83151;SDS011;73381;58.502;8.624;2024-01-15T09:18:09;4.68;;;2.13;;
83151;SDS011;73381;58.502;8.624;2024-01-15T09:21:11;4.68;;;1.20;;
83151;SDS011;73381;58.502;8.624;2024-01-15T09:24:13;4.93;;;1.75;;
83151;SDS011;73381;58.502;8.624;2024-01-15T09:27:15;3.78;;;1.35;;
83151;SDS011;73381;58.502;8.624;2024-01-15T09:30:18;6.18;;;1.30;;
83151;SDS011;73381;58.502;8.624;2024-01-15T09:33:20;4.32;;;1.27;;
83151;SDS011;73381;58.502;8.624;2024-01-15T09:36:22;3.80;;;1.55;;
83151;SDS011;73381;58.502;8.624;2024-01-15T09:39:24;3.75;;;1.27;;
83151;SDS011;73381;58.502;8.624;2024-01-15T09:42:25;3.22;;;0.98;;
83151;SDS011;73381;58.502;8.624;2024-01-15T09:45:29;10.02;;;2.55;;
83151;SDS011;73381;58.502;8.624;2024-01-15T09:48:31;22.90;;;6.68;;
83151;SDS011;73381;58.502;8.624;2024-01-15T09:51:34;6.20;;;1.70;;
83151;SDS011;73381;58.502;8.624;2024-01-15T09:54:37;6.00;;;1.70;;
83151;SDS011;73381;58.502;8.624;2024-01-15T09:57:39;8.85;;;3.38;;
83151;SDS011;73381;58.502;8.624;2024-01-15T10:00:42;14.50;;;4.00;;
83151;SDS011;73381;58.502;8.624;2024-01-15T10:03:46;8.15;;;2.72;;
83151;SDS011;73381;58.502;8.624;2024-01-15T10:06:48;6.07;;;1.92;;
83151;SDS011;73381;58.502;8.624;2024-01-15T10:09:53;3.17;;;0.70;;
83151;SDS011;73381;58.502;8.624;2024-01-15T10:12:55;1.00;;;0.45;;
83151;SDS011;73381;58.502;8.624;2024-01-15T10:15:58;1.55;;;0.20;;
83151;SDS011;73381;58.502;8.624;2024-01-15T10:19:02;0.65;;;0.30;;
83151;SDS011;73381;58.502;8.624;2024-01-15T10:22:04;1.10;;;0.40;;
83151;SDS011;73381;58.502;8.624;2024-01-15T10:25:06;0.75;;;0.40;;
83151;SDS011;73381;58.502;8.624;2024-01-15T10:28:11;1.52;;;0.50;;
83151;SDS011;73381;58.502;8.624;2024-01-15T10:31:16;0.52;;;0.20;;
83151;SDS011;73381;58.502;8.624;2024-01-15T10:34:18;14.20;;;5.10;;
83151;SDS011;73381;58.502;8.624;2024-01-15T10:37:21;7.80;;;2.75;;
83151;SDS011;73381;58.502;8.624;2024-01-15T10:40:28;5.57;;;1.67;;
83151;SDS011;73381;58.502;8.624;2024-01-15T10:43:30;3.75;;;1.48;;
83151;SDS011;73381;58.502;8.624;2024-01-15T10:46:34;4.88;;;1.40;;
83151;SDS011;73381;58.502;8.624;2024-01-15T10:49:36;8.60;;;3.15;;
83151;SDS011;73381;58.502;8.624;2024-01-15T10:52:39;6.70;;;2.30;;
83151;SDS011;73381;58.502;8.624;2024-01-15T10:55:42;3.97;;;1.60;;
83151;SDS011;73381;58.502;8.624;2024-01-15T10:58:50;2.88;;;1.10;;
83151;SDS011;73381;58.502;8.624;2024-01-15T11:01:53;3.78;;;1.17;;
83151;SDS011;73381;58.502;8.624;2024-01-15T11:04:57;4.10;;;1.35;;
83151;SDS011;73381;58.502;8.624;2024-01-15T11:08:00;2.55;;;0.85;;
83151;SDS011;73381;58.502;8.624;2024-01-15T11:11:02;2.40;;;1.00;;
83151;SDS011;73381;58.502;8.624;2024-01-15T11:14:04;4.55;;;2.47;;
83151;SDS011;73381;58.502;8.624;2024-01-15T11:17:08;3.25;;;1.55;;
83151;SDS011;73381;58.502;8.624;2024-01-15T11:20:10;2.55;;;1.00;;
83151;SDS011;73381;58.502;8.624;2024-01-15T11:23:11;7.40;;;2.97;;
83151;SDS011;73381;58.502;8.624;2024-01-15T11:26:47;10.52;;;3.22;;
83151;SDS011;73381;58.502;8.624;2024-01-15T11:29:48;8.40;;;2.50;;
83151;SDS011;73381;58.502;8.624;2024-01-15T11:33:06;9.60;;;2.60;;
83151;SDS011;73381;58.502;8.624;2024-01-15T11:36:07;5.35;;;1.77;;
83151;SDS011;73381;58.502;8.624;2024-01-15T11:42:42;5.75;;;1.73;;
83151;SDS011;73381;58.502;8.624;2024-01-15T11:45:45;5.72;;;1.90;;
83151;SDS011;73381;58.502;8.624;2024-01-15T11:48:54;5.57;;;2.03;;
83151;SDS011;73381;58.502;8.624;2024-01-15T11:52:05;4.30;;;1.40;;
83151;SDS011;73381;58.502;8.624;2024-01-15T11:55:10;5.70;;;1.77;;
83151;SDS011;73381;58.502;8.624;2024-01-15T11:58:13;5.55;;;1.70;;
83151;SDS011;73381;58.502;8.624;2024-01-15T12:01:15;3.35;;;1.50;;
83151;SDS011;73381;58.502;8.624;2024-01-15T12:04:20;10.52;;;2.72;;
83151;SDS011;73381;58.502;8.624;2024-01-15T12:07:22;12.55;;;3.72;;
83151;SDS011;73381;58.502;8.624;2024-01-15T12:10:24;12.20;;;3.05;;
83151;SDS011;73381;58.502;8.624;2024-01-15T12:13:25;6.35;;;1.65;;
83151;SDS011;73381;58.502;8.624;2024-01-15T12:16:28;1.15;;;0.55;;
83151;SDS011;73381;58.502;8.624;2024-01-15T12:19:31;1.85;;;0.63;;
83151;SDS011;73381;58.502;8.624;2024-01-15T12:22:33;1.65;;;0.70;;
83151;SDS011;73381;58.502;8.624;2024-01-15T12:25:55;2.22;;;0.50;;
83151;SDS011;73381;58.502;8.624;2024-01-15T12:28:57;0.20;;;0.20;;
83151;SDS011;73381;58.502;8.624;2024-01-15T12:32:02;0.70;;;0.40;;
83151;SDS011;73381;58.502;8.624;2024-01-15T12:35:07;1.63;;;0.75;;
83151;SDS011;73381;58.502;8.624;2024-01-15T12:38:10;3.25;;;1.23;;
83151;SDS011;73381;58.502;8.624;2024-01-15T12:41:12;3.38;;;1.00;;
83151;SDS011;73381;58.502;8.624;2024-01-15T12:44:13;2.67;;;1.10;;
83151;SDS011;73381;58.502;8.624;2024-01-15T12:47:16;1.58;;;0.70;;
83151;SDS011;73381;58.502;8.624;2024-01-15T12:50:19;8.07;;;1.40;;
83151;SDS011;73381;58.502;8.624;2024-01-15T12:53:25;4.72;;;2.00;;
83151;SDS011;73381;58.502;8.624;2024-01-15T12:56:26;3.63;;;1.52;;
83151;SDS011;73381;58.502;8.624;2024-01-15T12:59:28;3.67;;;1.30;;
83151;SDS011;73381;58.502;8.624;2024-01-15T13:02:30;1.13;;;0.52;;
83151;SDS011;73381;58.502;8.624;2024-01-15T13:05:33;1.92;;;0.57;;
83151;SDS011;73381;58.502;8.624;2024-01-15T13:08:36;2.63;;;0.63;;
83151;SDS011;73381;58.502;8.624;2024-01-15T13:11:37;4.68;;;1.05;;
83151;SDS011;73381;58.502;8.624;2024-01-15T13:14:39;4.07;;;1.63;;
83151;SDS011;73381;58.502;8.624;2024-01-15T13:17:41;6.03;;;2.03;;
83151;SDS011;73381;58.502;8.624;2024-01-15T13:20:45;2.60;;;0.75;;
83151;SDS011;73381;58.502;8.624;2024-01-15T13:23:47;1.85;;;0.70;;
83151;SDS011;73381;58.502;8.624;2024-01-15T13:26:48;1.58;;;0.50;;
83151;SDS011;73381;58.502;8.624;2024-01-15T13:29:50;2.17;;;0.93;;
83151;SDS011;73381;58.502;8.624;2024-01-15T13:32:52;4.43;;;1.65;;
83151;SDS011;73381;58.502;8.624;2024-01-15T13:35:55;5.28;;;0.93;;
83151;SDS011;73381;58.502;8.624;2024-01-15T13:38:57;4.63;;;1.88;;
83151;SDS011;73381;58.502;8.624;2024-01-15T13:41:59;5.55;;;2.00;;
83151;SDS011;73381;58.502;8.624;2024-01-15T13:45:01;5.57;;;1.55;;
83151;SDS011;73381;58.502;8.624;2024-01-15T13:48:03;5.13;;;1.15;;
83151;SDS011;73381;58.502;8.624;2024-01-15T13:51:06;15.70;;;3.35;;
83151;SDS011;73381;58.502;8.624;2024-01-15T13:54:08;9.27;;;3.30;;
83151;SDS011;73381;58.502;8.624;2024-01-15T13:57:10;6.25;;;2.30;;
83151;SDS011;73381;58.502;8.624;2024-01-15T14:00:12;6.78;;;2.13;;
83151;SDS011;73381;58.502;8.624;2024-01-15T14:03:15;6.28;;;2.25;;
83151;SDS011;73381;58.502;8.624;2024-01-15T14:06:18;6.78;;;2.67;;
83151;SDS011;73381;58.502;8.624;2024-01-15T14:09:20;7.13;;;2.28;;
83151;SDS011;73381;58.502;8.624;2024-01-15T14:12:22;7.90;;;2.67;;
83151;SDS011;73381;58.502;8.624;2024-01-15T14:15:24;9.40;;;3.10;;
83151;SDS011;73381;58.502;8.624;2024-01-15T14:18:26;7.88;;;2.67;;
83151;SDS011;73381;58.502;8.624;2024-01-15T14:21:31;9.20;;;2.55;;
83151;SDS011;73381;58.502;8.624;2024-01-15T14:24:33;10.70;;;2.35;;
83151;SDS011;73381;58.502;8.624;2024-01-15T14:27:35;7.45;;;2.35;;
83151;SDS011;73381;58.502;8.624;2024-01-15T14:30:37;10.90;;;3.35;;
83151;SDS011;73381;58.502;8.624;2024-01-15T14:33:39;9.43;;;2.85;;
83151;SDS011;73381;58.502;8.624;2024-01-15T14:36:42;11.75;;;2.25;;
83151;SDS011;73381;58.502;8.624;2024-01-15T14:39:44;9.68;;;3.00;;
83151;SDS011;73381;58.502;8.624;2024-01-15T14:42:46;13.35;;;4.32;;
83151;SDS011;73381;58.502;8.624;2024-01-15T14:45:47;9.15;;;3.38;;
83151;SDS011;73381;58.502;8.624;2024-01-15T14:48:49;8.43;;;2.20;;
83151;SDS011;73381;58.502;8.624;2024-01-15T14:51:52;4.55;;;1.60;;
83151;SDS011;73381;58.502;8.624;2024-01-15T14:54:54;5.32;;;1.40;;
83151;SDS011;73381;58.502;8.624;2024-01-15T14:57:56;2.35;;;0.65;;
83151;SDS011;73381;58.502;8.624;2024-01-15T15:00:58;4.18;;;1.35;;
83151;SDS011;73381;58.502;8.624;2024-01-15T15:04:00;2.92;;;1.02;;
83151;SDS011;73381;58.502;8.624;2024-01-15T15:07:03;2.45;;;1.02;;
83151;SDS011;73381;58.502;8.624;2024-01-15T15:10:06;2.17;;;0.82;;
83151;SDS011;73381;58.502;8.624;2024-01-15T15:13:09;4.25;;;1.30;;
83151;SDS011;73381;58.502;8.624;2024-01-15T15:16:11;6.13;;;2.47;;
83151;SDS011;73381;58.502;8.624;2024-01-15T15:19:13;7.95;;;3.08;;
83151;SDS011;73381;58.502;8.624;2024-01-15T15:22:16;10.68;;;3.70;;
83151;SDS011;73381;58.502;8.624;2024-01-15T15:25:18;6.07;;;1.90;;
83151;SDS011;73381;58.502;8.624;2024-01-15T15:28:20;5.45;;;2.20;;
83151;SDS011;73381;58.502;8.624;2024-01-15T15:31:21;4.30;;;1.77;;
83151;SDS011;73381;58.502;8.624;2024-01-15T15:34:23;4.45;;;1.88;;
83151;SDS011;73381;58.502;8.624;2024-01-15T15:37:26;8.23;;;3.63;;
83151;SDS011;73381;58.502;8.624;2024-01-15T15:40:28;14.38;;;4.57;;
83151;SDS011;73381;58.502;8.624;2024-01-15T15:43:30;9.23;;;3.53;;
83151;SDS011;73381;58.502;8.624;2024-01-15T15:46:31;11.73;;;3.75;;
83151;SDS011;73381;58.502;8.624;2024-01-15T15:49:33;5.35;;;2.63;;
83151;SDS011;73381;58.502;8.624;2024-01-15T15:52:37;8.25;;;2.88;;
83151;SDS011;73381;58.502;8.624;2024-01-15T15:55:38;9.88;;;3.22;;
83151;SDS011;73381;58.502;8.624;2024-01-15T15:58:47;31.50;;;10.82;;
83151;SDS011;73381;58.502;8.624;2024-01-15T16:01:49;10.23;;;3.08;;
83151;SDS011;73381;58.502;8.624;2024-01-15T16:04:51;8.70;;;4.07;;
83151;SDS011;73381;58.502;8.624;2024-01-15T16:07:54;11.15;;;5.15;;
83151;SDS011;73381;58.502;8.624;2024-01-15T16:10:56;8.57;;;3.60;;
83151;SDS011;73381;58.502;8.624;2024-01-15T16:17:04;7.78;;;2.35;;
83151;SDS011;73381;58.502;8.624;2024-01-15T16:20:26;8.52;;;2.70;;
83151;SDS011;73381;58.502;8.624;2024-01-15T16:23:49;7.53;;;2.85;;
83151;SDS011;73381;58.502;8.624;2024-01-15T16:27:11;7.30;;;2.85;;
83151;SDS011;73381;58.502;8.624;2024-01-15T16:30:15;5.22;;;2.03;;
83151;SDS011;73381;58.502;8.624;2024-01-15T16:33:30;3.22;;;1.25;;
83151;SDS011;73381;58.502;8.624;2024-01-15T16:36:32;4.50;;;1.85;;
83151;SDS011;73381;58.502;8.624;2024-01-15T16:39:36;5.43;;;1.75;;
83151;SDS011;73381;58.502;8.624;2024-01-15T16:42:38;3.75;;;1.27;;
83151;SDS011;73381;58.502;8.624;2024-01-15T16:45:39;7.75;;;2.47;;
83151;SDS011;73381;58.502;8.624;2024-01-15T16:48:41;6.75;;;1.88;;
83151;SDS011;73381;58.502;8.624;2024-01-15T16:51:43;6.25;;;2.80;;
83151;SDS011;73381;58.502;8.624;2024-01-15T16:54:46;7.18;;;2.08;;
83151;SDS011;73381;58.502;8.624;2024-01-15T16:57:48;5.88;;;2.88;;
83151;SDS011;73381;58.502;8.624;2024-01-15T17:00:50;10.32;;;2.97;;
83151;SDS011;73381;58.502;8.624;2024-01-15T17:03:52;9.48;;;3.78;;
83151;SDS011;73381;58.502;8.624;2024-01-15T17:06:53;9.02;;;2.95;;
83151;SDS011;73381;58.502;8.624;2024-01-15T17:09:57;3.40;;;1.60;;
83151;SDS011;73381;58.502;8.624;2024-01-15T17:12:58;6.30;;;1.95;;
83151;SDS011;73381;58.502;8.624;2024-01-15T17:16:00;3.95;;;1.15;;
83151;SDS011;73381;58.502;8.624;2024-01-15T17:19:02;5.90;;;2.45;;
83151;SDS011;73381;58.502;8.624;2024-01-15T17:22:04;15.77;;;3.35;;
83151;SDS011;73381;58.502;8.624;2024-01-15T17:25:07;10.27;;;3.60;;
83151;SDS011;73381;58.502;8.624;2024-01-15T17:28:09;7.97;;;4.03;;
83151;SDS011;73381;58.502;8.624;2024-01-15T17:31:11;4.93;;;2.33;;
83151;SDS011;73381;58.502;8.624;2024-01-15T17:34:13;4.43;;;2.25;;
83151;SDS011;73381;58.502;8.624;2024-01-15T17:37:15;9.48;;;2.92;;
83151;SDS011;73381;58.502;8.624;2024-01-15T17:40:18;9.55;;;3.03;;
83151;SDS011;73381;58.502;8.624;2024-01-15T17:43:20;10.95;;;3.33;;
83151;SDS011;73381;58.502;8.624;2024-01-15T17:46:22;8.85;;;3.40;;
83151;SDS011;73381;58.502;8.624;2024-01-15T17:49:23;12.38;;;2.40;;
83151;SDS011;73381;58.502;8.624;2024-01-15T17:52:25;4.65;;;2.22;;
83151;SDS011;73381;58.502;8.624;2024-01-15T17:55:29;1.63;;;0.90;;
83151;SDS011;73381;58.502;8.624;2024-01-15T17:58:38;5.35;;;2.60;;
83151;SDS011;73381;58.502;8.624;2024-01-15T18:01:40;4.70;;;1.58;;
83151;SDS011;73381;58.502;8.624;2024-01-15T18:04:42;3.92;;;1.95;;
83151;SDS011;73381;58.502;8.624;2024-01-15T18:07:43;6.72;;;1.95;;
83151;SDS011;73381;58.502;8.624;2024-01-15T18:10:47;3.70;;;2.22;;
83151;SDS011;73381;58.502;8.624;2024-01-15T18:13:48;17.00;;;5.80;;
83151;SDS011;73381;58.502;8.624;2024-01-15T18:16:50;10.88;;;4.22;;
83151;SDS011;73381;58.502;8.624;2024-01-15T18:19:52;16.40;;;4.43;;
83151;SDS011;73381;58.502;8.624;2024-01-15T18:22:54;10.18;;;3.22;;
83151;SDS011;73381;58.502;8.624;2024-01-15T18:25:57;11.02;;;3.42;;